sensor_id;sensor_type;location;lat;lon;timestamp;P1;durP1;ratioP1;P2;durP2;ratioP2
36315;SDS011;22343;50.820;2.666;2023-07-30T00:02:39;10.70;;;3.40;;
36315;SDS011;22343;50.820;2.666;2023-07-30T00:05:23;13.02;;;3.47;;
36315;SDS011;22343;50.820;2.666;2023-07-30T00:08:07;14.90;;;4.00;;
36315;SDS011;22343;50.820;2.666;2023-07-30T00:10:52;13.97;;;4.00;;
36315;SDS011;22343;50.820;2.666;2023-07-30T00:13:36;10.67;;;3.83;;
36315;SDS011;22343;50.820;2.666;2023-07-30T00:16:21;14.27;;;3.78;;
36315;SDS011;22343;50.820;2.666;2023-07-30T00:19:06;12.40;;;4.47;;
36315;SDS011;22343;50.820;2.666;2023-07-30T00:21:50;11.88;;;3.30;;
36315;SDS011;22343;50.820;2.666;2023-07-30T00:24:34;11.45;;;3.53;;
36315;SDS011;22343;50.820;2.666;2023-07-30T00:27:19;13.57;;;4.13;;
36315;SDS011;22343;50.820;2.666;2023-07-30T00:30:03;8.63;;;3.50;;
36315;SDS011;22343;50.820;2.666;2023-07-30T00:32:48;13.13;;;3.92;;
36315;SDS011;22343;50.820;2.666;2023-07-30T00:35:33;12.65;;;3.80;;
36315;SDS011;22343;50.820;2.666;2023-07-30T00:38:18;13.82;;;3.53;;
36315;SDS011;22343;50.820;2.666;2023-07-30T00:41:03;13.07;;;3.72;;
36315;SDS011;22343;50.820;2.666;2023-07-30T00:43:47;10.63;;;3.90;;
36315;SDS011;22343;50.820;2.666;2023-07-30T00:46:32;13.02;;;3.80;;
36315;SDS011;22343;50.820;2.666;2023-07-30T00:49:16;11.75;;;3.70;;
36315;SDS011;22343;50.820;2.666;2023-07-30T00:52:01;20.47;;;3.80;;
36315;SDS011;22343;50.820;2.666;2023-07-30T00:54:46;14.45;;;3.97;;
36315;SDS011;22343;50.820;2.666;2023-07-30T00:57:32;18.00;;;3.83;;
36315;SDS011;22343;50.820;2.666;2023-07-30T01:00:17;12.38;;;3.65;;
36315;SDS011;22343;50.820;2.666;2023-07-30T01:03:01;13.18;;;3.78;;
36315;SDS011;22343;50.820;2.666;2023-07-30T01:05:46;10.47;;;3.60;;
36315;SDS011;22343;50.820;2.666;2023-07-30T01:08:31;11.60;;;3.67;;
36315;SDS011;22343;50.820;2.666;2023-07-30T01:11:15;12.52;;;3.80;;
36315;SDS011;22343;50.820;2.666;2023-07-30T01:14:00;16.50;;;4.10;;
36315;SDS011;22343;50.820;2.666;2023-07-30T01:16:44;12.75;;;3.65;;
36315;SDS011;22343;50.820;2.666;2023-07-30T01:19:29;16.70;;;3.87;;
36315;SDS011;22343;50.820;2.666;2023-07-30T01:22:13;13.73;;;3.93;;
36315;SDS011;22343;50.820;2.666;2023-07-30T01:24:57;17.60;;;4.25;;
36315;SDS011;22343;50.820;2.666;2023-07-30T01:27:44;17.63;;;4.43;;
36315;SDS011;22343;50.820;2.666;2023-07-30T01:30:37;17.95;;;3.88;;
36315;SDS011;22343;50.820;2.666;2023-07-30T01:33:23;17.83;;;3.80;;
36315;SDS011;22343;50.820;2.666;2023-07-30T01:36:08;15.20;;;3.80;;
36315;SDS011;22343;50.820;2.666;2023-07-30T01:38:53;13.73;;;3.95;;
36315;SDS011;22343;50.820;2.666;2023-07-30T01:41:37;18.03;;;3.80;;
36315;SDS011;22343;50.820;2.666;2023-07-30T01:44:22;14.30;;;4.10;;
36315;SDS011;22343;50.820;2.666;2023-07-30T01:47:06;12.85;;;4.22;;
36315;SDS011;22343;50.820;2.666;2023-07-30T01:49:50;15.13;;;3.93;;
36315;SDS011;22343;50.820;2.666;2023-07-30T01:52:34;13.50;;;3.83;;
36315;SDS011;22343;50.820;2.666;2023-07-30T01:55:20;11.57;;;3.78;;
36315;SDS011;22343;50.820;2.666;2023-07-30T01:58:05;10.40;;;3.97;;
36315;SDS011;22343;50.820;2.666;2023-07-30T02:00:49;15.70;;;4.37;;
36315;SDS011;22343;50.820;2.666;2023-07-30T02:03:33;17.02;;;4.05;;
36315;SDS011;22343;50.820;2.666;2023-07-30T02:06:18;16.53;;;4.27;;
36315;SDS011;22343;50.820;2.666;2023-07-30T02:09:02;14.77;;;4.70;;
36315;SDS011;22343;50.820;2.666;2023-07-30T02:11:46;12.77;;;3.88;;
36315;SDS011;22343;50.820;2.666;2023-07-30T02:14:31;13.15;;;4.47;;
36315;SDS011;22343;50.820;2.666;2023-07-30T02:17:15;16.10;;;4.27;;
36315;SDS011;22343;50.820;2.666;2023-07-30T02:19:59;15.67;;;4.40;;
36315;SDS011;22343;50.820;2.666;2023-07-30T02:22:43;14.70;;;4.37;;
36315;SDS011;22343;50.820;2.666;2023-07-30T02:25:28;11.27;;;4.13;;
36315;SDS011;22343;50.820;2.666;2023-07-30T02:28:12;13.88;;;4.55;;
36315;SDS011;22343;50.820;2.666;2023-07-30T02:30:56;14.10;;;4.77;;
36315;SDS011;22343;50.820;2.666;2023-07-30T02:33:40;18.80;;;4.57;;
36315;SDS011;22343;50.820;2.666;2023-07-30T02:36:25;13.77;;;4.45;;
36315;SDS011;22343;50.820;2.666;2023-07-30T02:39:09;18.70;;;4.93;;
36315;SDS011;22343;50.820;2.666;2023-07-30T02:41:53;19.30;;;4.43;;
36315;SDS011;22343;50.820;2.666;2023-07-30T02:44:38;19.00;;;4.95;;
36315;SDS011;22343;50.820;2.666;2023-07-30T02:47:22;18.67;;;5.10;;
36315;SDS011;22343;50.820;2.666;2023-07-30T02:50:06;17.13;;;4.97;;
36315;SDS011;22343;50.820;2.666;2023-07-30T02:52:52;11.97;;;4.10;;
36315;SDS011;22343;50.820;2.666;2023-07-30T02:55:36;15.00;;;4.63;;
36315;SDS011;22343;50.820;2.666;2023-07-30T02:58:21;16.48;;;4.43;;
36315;SDS011;22343;50.820;2.666;2023-07-30T03:01:08;16.42;;;4.30;;
36315;SDS011;22343;50.820;2.666;2023-07-30T03:03:53;14.73;;;4.93;;
36315;SDS011;22343;50.820;2.666;2023-07-30T03:06:37;18.33;;;4.55;;
36315;SDS011;22343;50.820;2.666;2023-07-30T03:09:21;16.40;;;4.30;;
36315;SDS011;22343;50.820;2.666;2023-07-30T03:12:06;15.80;;;4.57;;
36315;SDS011;22343;50.820;2.666;2023-07-30T03:14:51;16.00;;;4.47;;
36315;SDS011;22343;50.820;2.666;2023-07-30T03:17:35;18.27;;;4.73;;
36315;SDS011;22343;50.820;2.666;2023-07-30T03:20:20;14.60;;;4.97;;
36315;SDS011;22343;50.820;2.666;2023-07-30T03:23:04;14.20;;;4.70;;
36315;SDS011;22343;50.820;2.666;2023-07-30T03:25:48;13.25;;;4.60;;
36315;SDS011;22343;50.820;2.666;2023-07-30T03:28:33;17.07;;;4.63;;
36315;SDS011;22343;50.820;2.666;2023-07-30T03:31:17;14.93;;;4.63;;
36315;SDS011;22343;50.820;2.666;2023-07-30T03:34:01;16.60;;;4.30;;
36315;SDS011;22343;50.820;2.666;2023-07-30T03:36:46;17.02;;;4.80;;
36315;SDS011;22343;50.820;2.666;2023-07-30T03:39:30;20.58;;;5.07;;
36315;SDS011;22343;50.820;2.666;2023-07-30T03:42:15;15.55;;;4.68;;
36315;SDS011;22343;50.820;2.666;2023-07-30T03:44:59;20.50;;;4.77;;
36315;SDS011;22343;50.820;2.666;2023-07-30T03:47:43;14.67;;;4.60;;
36315;SDS011;22343;50.820;2.666;2023-07-30T03:50:28;18.15;;;5.00;;
36315;SDS011;22343;50.820;2.666;2023-07-30T03:53:12;16.15;;;4.80;;
36315;SDS011;22343;50.820;2.666;2023-07-30T03:55:56;14.07;;;4.33;;
36315;SDS011;22343;50.820;2.666;2023-07-30T03:58:40;22.88;;;5.20;;
36315;SDS011;22343;50.820;2.666;2023-07-30T04:01:25;16.17;;;4.90;;
36315;SDS011;22343;50.820;2.666;2023-07-30T04:04:09;18.70;;;4.97;;
36315;SDS011;22343;50.820;2.666;2023-07-30T04:06:53;14.33;;;4.60;;
36315;SDS011;22343;50.820;2.666;2023-07-30T04:09:38;19.80;;;4.85;;
36315;SDS011;22343;50.820;2.666;2023-07-30T04:12:22;16.67;;;4.60;;
36315;SDS011;22343;50.820;2.666;2023-07-30T04:15:07;13.13;;;4.47;;
36315;SDS011;22343;50.820;2.666;2023-07-30T04:17:51;17.73;;;4.60;;
36315;SDS011;22343;50.820;2.666;2023-07-30T04:20:36;17.63;;;4.97;;
36315;SDS011;22343;50.820;2.666;2023-07-30T04:23:20;16.73;;;4.63;;
36315;SDS011;22343;50.820;2.666;2023-07-30T04:26:04;14.47;;;4.40;;
36315;SDS011;22343;50.820;2.666;2023-07-30T04:28:49;20.70;;;4.77;;
36315;SDS011;22343;50.820;2.666;2023-07-30T04:31:33;15.13;;;4.20;;
36315;SDS011;22343;50.820;2.666;2023-07-30T04:34:17;16.77;;;4.70;;
36315;SDS011;22343;50.820;2.666;2023-07-30T04:37:02;17.13;;;4.83;;
36315;SDS011;22343;50.820;2.666;2023-07-30T04:39:47;15.40;;;4.43;;
36315;SDS011;22343;50.820;2.666;2023-07-30T04:42:32;22.30;;;4.85;;
36315;SDS011;22343;50.820;2.666;2023-07-30T04:45:16;15.27;;;4.13;;
36315;SDS011;22343;50.820;2.666;2023-07-30T04:48:00;13.93;;;4.60;;
36315;SDS011;22343;50.820;2.666;2023-07-30T04:50:45;16.55;;;4.70;;
36315;SDS011;22343;50.820;2.666;2023-07-30T04:53:29;17.50;;;4.57;;
36315;SDS011;22343;50.820;2.666;2023-07-30T04:56:13;14.52;;;4.75;;
36315;SDS011;22343;50.820;2.666;2023-07-30T04:58:58;18.43;;;4.50;;
36315;SDS011;22343;50.820;2.666;2023-07-30T05:01:43;13.98;;;4.20;;
36315;SDS011;22343;50.820;2.666;2023-07-30T05:04:27;17.30;;;4.70;;
36315;SDS011;22343;50.820;2.666;2023-07-30T05:07:12;18.20;;;4.57;;
36315;SDS011;22343;50.820;2.666;2023-07-30T05:09:56;17.52;;;4.38;;
36315;SDS011;22343;50.820;2.666;2023-07-30T05:12:41;18.27;;;4.43;;
36315;SDS011;22343;50.820;2.666;2023-07-30T05:15:25;18.77;;;4.93;;
36315;SDS011;22343;50.820;2.666;2023-07-30T05:18:10;14.50;;;4.87;;
36315;SDS011;22343;50.820;2.666;2023-07-30T05:20:54;16.00;;;5.13;;
36315;SDS011;22343;50.820;2.666;2023-07-30T05:23:39;15.88;;;4.68;;
36315;SDS011;22343;50.820;2.666;2023-07-30T05:26:23;18.85;;;5.00;;
36315;SDS011;22343;50.820;2.666;2023-07-30T05:29:08;15.87;;;4.60;;
36315;SDS011;22343;50.820;2.666;2023-07-30T05:31:52;12.27;;;4.30;;
36315;SDS011;22343;50.820;2.666;2023-07-30T05:34:36;15.63;;;4.70;;
36315;SDS011;22343;50.820;2.666;2023-07-30T05:37:21;16.67;;;4.47;;
36315;SDS011;22343;50.820;2.666;2023-07-30T05:40:05;14.02;;;4.43;;
36315;SDS011;22343;50.820;2.666;2023-07-30T05:42:51;16.58;;;4.03;;
36315;SDS011;22343;50.820;2.666;2023-07-30T05:45:35;16.60;;;4.68;;
36315;SDS011;22343;50.820;2.666;2023-07-30T05:48:19;9.57;;;4.30;;
36315;SDS011;22343;50.820;2.666;2023-07-30T05:51:03;14.50;;;4.65;;
36315;SDS011;22343;50.820;2.666;2023-07-30T05:53:48;13.10;;;4.22;;
36315;SDS011;22343;50.820;2.666;2023-07-30T05:56:32;17.35;;;4.38;;
36315;SDS011;22343;50.820;2.666;2023-07-30T05:59:16;15.50;;;4.32;;
36315;SDS011;22343;50.820;2.666;2023-07-30T06:02:04;16.58;;;4.32;;
36315;SDS011;22343;50.820;2.666;2023-07-30T06:04:49;13.93;;;4.20;;
36315;SDS011;22343;50.820;2.666;2023-07-30T06:07:33;17.65;;;4.68;;
36315;SDS011;22343;50.820;2.666;2023-07-30T06:10:18;15.63;;;4.63;;
36315;SDS011;22343;50.820;2.666;2023-07-30T06:13:04;12.48;;;3.92;;
36315;SDS011;22343;50.820;2.666;2023-07-30T06:15:50;13.10;;;4.00;;
36315;SDS011;22343;50.820;2.666;2023-07-30T06:18:36;13.15;;;3.70;;
36315;SDS011;22343;50.820;2.666;2023-07-30T06:21:20;13.45;;;3.30;;
36315;SDS011;22343;50.820;2.666;2023-07-30T06:24:05;8.68;;;3.20;;
36315;SDS011;22343;50.820;2.666;2023-07-30T06:26:49;9.48;;;3.28;;
36315;SDS011;22343;50.820;2.666;2023-07-30T06:29:33;9.93;;;3.40;;
36315;SDS011;22343;50.820;2.666;2023-07-30T06:32:18;8.70;;;3.20;;
36315;SDS011;22343;50.820;2.666;2023-07-30T06:35:02;7.38;;;2.92;;
36315;SDS011;22343;50.820;2.666;2023-07-30T06:37:47;9.82;;;3.10;;
36315;SDS011;22343;50.820;2.666;2023-07-30T06:40:31;11.48;;;3.70;;
36315;SDS011;22343;50.820;2.666;2023-07-30T06:43:16;12.25;;;3.10;;
36315;SDS011;22343;50.820;2.666;2023-07-30T06:46:00;9.50;;;2.90;;
36315;SDS011;22343;50.820;2.666;2023-07-30T06:48:45;7.70;;;2.97;;
36315;SDS011;22343;50.820;2.666;2023-07-30T06:51:29;9.63;;;3.15;;
36315;SDS011;22343;50.820;2.666;2023-07-30T06:54:14;10.10;;;3.38;;
36315;SDS011;22343;50.820;2.666;2023-07-30T06:56:59;7.72;;;2.88;;
36315;SDS011;22343;50.820;2.666;2023-07-30T06:59:43;7.32;;;2.92;;
36315;SDS011;22343;50.820;2.666;2023-07-30T07:02:27;8.00;;;3.00;;
36315;SDS011;22343;50.820;2.666;2023-07-30T07:05:12;10.02;;;2.92;;
36315;SDS011;22343;50.820;2.666;2023-07-30T07:07:56;8.50;;;3.22;;
36315;SDS011;22343;50.820;2.666;2023-07-30T07:10:40;9.25;;;3.30;;
36315;SDS011;22343;50.820;2.666;2023-07-30T07:13:25;9.20;;;2.83;;
36315;SDS011;22343;50.820;2.666;2023-07-30T07:16:09;9.65;;;2.90;;
36315;SDS011;22343;50.820;2.666;2023-07-30T07:18:53;8.52;;;2.85;;
36315;SDS011;22343;50.820;2.666;2023-07-30T07:21:38;7.55;;;3.03;;
36315;SDS011;22343;50.820;2.666;2023-07-30T07:24:22;7.25;;;3.00;;
36315;SDS011;22343;50.820;2.666;2023-07-30T07:27:06;8.63;;;2.72;;
36315;SDS011;22343;50.820;2.666;2023-07-30T07:29:51;8.98;;;3.05;;
36315;SDS011;22343;50.820;2.666;2023-07-30T07:32:36;6.88;;;2.53;;
36315;SDS011;22343;50.820;2.666;2023-07-30T07:35:22;6.75;;;2.50;;
36315;SDS011;22343;50.820;2.666;2023-07-30T07:38:07;6.45;;;2.80;;
36315;SDS011;22343;50.820;2.666;2023-07-30T07:40:52;9.07;;;2.50;;
36315;SDS011;22343;50.820;2.666;2023-07-30T07:43:36;7.18;;;2.42;;
36315;SDS011;22343;50.820;2.666;2023-07-30T07:46:21;8.38;;;2.78;;
36315;SDS011;22343;50.820;2.666;2023-07-30T07:49:06;8.43;;;2.85;;
36315;SDS011;22343;50.820;2.666;2023-07-30T07:51:52;6.97;;;2.80;;
36315;SDS011;22343;50.820;2.666;2023-07-30T07:54:37;8.77;;;2.60;;
36315;SDS011;22343;50.820;2.666;2023-07-30T07:57:21;7.50;;;2.60;;
36315;SDS011;22343;50.820;2.666;2023-07-30T08:00:06;9.00;;;3.05;;
36315;SDS011;22343;50.820;2.666;2023-07-30T08:02:51;9.95;;;2.70;;
36315;SDS011;22343;50.820;2.666;2023-07-30T08:05:35;11.23;;;3.17;;
36315;SDS011;22343;50.820;2.666;2023-07-30T08:08:20;9.35;;;2.83;;
36315;SDS011;22343;50.820;2.666;2023-07-30T08:11:07;8.68;;;2.85;;
36315;SDS011;22343;50.820;2.666;2023-07-30T08:13:52;8.90;;;3.00;;
36315;SDS011;22343;50.820;2.666;2023-07-30T08:16:37;6.32;;;2.85;;
36315;SDS011;22343;50.820;2.666;2023-07-30T08:19:21;11.95;;;3.33;;
36315;SDS011;22343;50.820;2.666;2023-07-30T08:22:05;10.43;;;2.92;;
36315;SDS011;22343;50.820;2.666;2023-07-30T08:24:51;8.38;;;2.78;;
36315;SDS011;22343;50.820;2.666;2023-07-30T08:27:35;8.95;;;2.83;;
36315;SDS011;22343;50.820;2.666;2023-07-30T08:30:20;6.72;;;2.58;;
36315;SDS011;22343;50.820;2.666;2023-07-30T08:33:04;8.95;;;2.22;;
36315;SDS011;22343;50.820;2.666;2023-07-30T08:35:48;6.97;;;2.50;;
36315;SDS011;22343;50.820;2.666;2023-07-30T08:38:33;4.28;;;2.28;;
36315;SDS011;22343;50.820;2.666;2023-07-30T08:41:17;4.88;;;2.20;;
36315;SDS011;22343;50.820;2.666;2023-07-30T08:44:02;8.82;;;2.47;;
36315;SDS011;22343;50.820;2.666;2023-07-30T08:46:46;6.75;;;2.38;;
36315;SDS011;22343;50.820;2.666;2023-07-30T08:49:30;7.15;;;2.28;;
36315;SDS011;22343;50.820;2.666;2023-07-30T08:52:16;4.47;;;2.25;;
36315;SDS011;22343;50.820;2.666;2023-07-30T08:55:01;5.10;;;2.10;;
36315;SDS011;22343;50.820;2.666;2023-07-30T08:57:47;6.63;;;2.45;;
36315;SDS011;22343;50.820;2.666;2023-07-30T09:00:34;6.78;;;2.17;;
36315;SDS011;22343;50.820;2.666;2023-07-30T09:03:19;6.63;;;2.30;;
36315;SDS011;22343;50.820;2.666;2023-07-30T09:06:03;6.93;;;2.50;;
36315;SDS011;22343;50.820;2.666;2023-07-30T09:08:48;6.05;;;2.20;;
36315;SDS011;22343;50.820;2.666;2023-07-30T09:11:32;6.90;;;2.60;;
36315;SDS011;22343;50.820;2.666;2023-07-30T09:14:18;6.28;;;2.30;;
36315;SDS011;22343;50.820;2.666;2023-07-30T09:17:03;8.00;;;2.50;;
36315;SDS011;22343;50.820;2.666;2023-07-30T09:19:48;6.85;;;2.45;;
36315;SDS011;22343;50.820;2.666;2023-07-30T09:22:34;5.88;;;2.38;;
36315;SDS011;22343;50.820;2.666;2023-07-30T09:25:25;9.10;;;2.72;;
36315;SDS011;22343;50.820;2.666;2023-07-30T09:28:10;6.55;;;2.70;;
36315;SDS011;22343;50.820;2.666;2023-07-30T09:30:59;6.63;;;2.60;;
36315;SDS011;22343;50.820;2.666;2023-07-30T09:33:44;9.57;;;2.85;;
36315;SDS011;22343;50.820;2.666;2023-07-30T09:36:30;7.15;;;2.53;;
36315;SDS011;22343;50.820;2.666;2023-07-30T09:42:06;6.75;;;2.47;;
36315;SDS011;22343;50.820;2.666;2023-07-30T09:44:51;6.05;;;2.38;;
36315;SDS011;22343;50.820;2.666;2023-07-30T09:47:38;9.93;;;3.00;;
36315;SDS011;22343;50.820;2.666;2023-07-30T09:50:23;6.03;;;2.10;;
36315;SDS011;22343;50.820;2.666;2023-07-30T09:53:08;6.05;;;2.13;;
36315;SDS011;22343;50.820;2.666;2023-07-30T09:55:53;5.78;;;2.28;;
36315;SDS011;22343;50.820;2.666;2023-07-30T09:58:37;7.90;;;2.50;;
36315;SDS011;22343;50.820;2.666;2023-07-30T10:01:22;4.78;;;2.28;;
36315;SDS011;22343;50.820;2.666;2023-07-30T10:04:08;6.57;;;2.40;;
36315;SDS011;22343;50.820;2.666;2023-07-30T10:09:43;5.85;;;2.40;;
36315;SDS011;22343;50.820;2.666;2023-07-30T10:12:31;7.00;;;2.40;;
36315;SDS011;22343;50.820;2.666;2023-07-30T10:15:20;8.50;;;2.55;;
36315;SDS011;22343;50.820;2.666;2023-07-30T10:18:07;7.70;;;2.47;;
36315;SDS011;22343;50.820;2.666;2023-07-30T10:20:52;8.32;;;2.65;;
36315;SDS011;22343;50.820;2.666;2023-07-30T10:24:00;9.20;;;2.38;;
36315;SDS011;22343;50.820;2.666;2023-07-30T10:26:46;6.53;;;2.60;;
36315;SDS011;22343;50.820;2.666;2023-07-30T10:29:31;6.20;;;2.47;;
36315;SDS011;22343;50.820;2.666;2023-07-30T10:32:15;3.75;;;2.25;;
36315;SDS011;22343;50.820;2.666;2023-07-30T10:35:00;5.20;;;2.17;;
36315;SDS011;22343;50.820;2.666;2023-07-30T10:37:47;5.68;;;2.40;;
36315;SDS011;22343;50.820;2.666;2023-07-30T10:40:32;6.30;;;2.25;;
36315;SDS011;22343;50.820;2.666;2023-07-30T10:43:16;5.93;;;2.08;;
36315;SDS011;22343;50.820;2.666;2023-07-30T10:46:01;5.65;;;2.28;;
36315;SDS011;22343;50.820;2.666;2023-07-30T10:48:46;7.18;;;2.17;;
36315;SDS011;22343;50.820;2.666;2023-07-30T10:51:32;7.00;;;2.25;;
36315;SDS011;22343;50.820;2.666;2023-07-30T10:54:16;8.75;;;2.50;;
36315;SDS011;22343;50.820;2.666;2023-07-30T10:57:01;4.38;;;2.10;;
36315;SDS011;22343;50.820;2.666;2023-07-30T10:59:47;5.97;;;2.22;;
36315;SDS011;22343;50.820;2.666;2023-07-30T11:02:32;6.13;;;2.50;;
36315;SDS011;22343;50.820;2.666;2023-07-30T11:05:16;6.18;;;2.40;;
36315;SDS011;22343;50.820;2.666;2023-07-30T11:08:01;5.00;;;2.65;;
36315;SDS011;22343;50.820;2.666;2023-07-30T11:10:45;6.55;;;2.58;;
36315;SDS011;22343;50.820;2.666;2023-07-30T11:16:21;8.73;;;2.53;;
36315;SDS011;22343;50.820;2.666;2023-07-30T11:19:09;6.55;;;2.80;;
36315;SDS011;22343;50.820;2.666;2023-07-30T11:21:54;4.78;;;2.42;;
36315;SDS011;22343;50.820;2.666;2023-07-30T11:24:40;8.73;;;2.70;;
36315;SDS011;22343;50.820;2.666;2023-07-30T11:27:25;5.53;;;2.80;;
36315;SDS011;22343;50.820;2.666;2023-07-30T11:30:09;6.63;;;2.60;;
36315;SDS011;22343;50.820;2.666;2023-07-30T11:32:54;6.30;;;2.40;;
36315;SDS011;22343;50.820;2.666;2023-07-30T11:35:40;7.78;;;3.15;;
36315;SDS011;22343;50.820;2.666;2023-07-30T11:38:24;8.00;;;2.95;;
36315;SDS011;22343;50.820;2.666;2023-07-30T11:41:09;8.05;;;3.10;;
36315;SDS011;22343;50.820;2.666;2023-07-30T11:43:54;5.85;;;2.90;;
36315;SDS011;22343;50.820;2.666;2023-07-30T11:46:39;6.32;;;3.03;;
36315;SDS011;22343;50.820;2.666;2023-07-30T11:49:37;9.57;;;3.10;;
36315;SDS011;22343;50.820;2.666;2023-07-30T11:52:22;10.80;;;2.78;;
36315;SDS011;22343;50.820;2.666;2023-07-30T11:55:06;10.55;;;3.40;;
36315;SDS011;22343;50.820;2.666;2023-07-30T11:57:51;6.82;;;3.08;;
36315;SDS011;22343;50.820;2.666;2023-07-30T12:00:36;5.00;;;2.90;;
36315;SDS011;22343;50.820;2.666;2023-07-30T12:03:21;6.40;;;2.97;;
36315;SDS011;22343;50.820;2.666;2023-07-30T12:06:05;7.57;;;3.10;;
36315;SDS011;22343;50.820;2.666;2023-07-30T12:08:50;11.43;;;3.60;;
36315;SDS011;22343;50.820;2.666;2023-07-30T12:11:35;8.88;;;3.47;;
36315;SDS011;22343;50.820;2.666;2023-07-30T12:14:29;7.82;;;3.58;;
36315;SDS011;22343;50.820;2.666;2023-07-30T12:17:27;9.55;;;3.85;;
36315;SDS011;22343;50.820;2.666;2023-07-30T12:20:12;8.05;;;3.50;;
36315;SDS011;22343;50.820;2.666;2023-07-30T12:22:56;8.40;;;3.63;;
36315;SDS011;22343;50.820;2.666;2023-07-30T12:25:41;8.73;;;3.40;;
36315;SDS011;22343;50.820;2.666;2023-07-30T12:28:25;6.95;;;3.70;;
36315;SDS011;22343;50.820;2.666;2023-07-30T12:31:10;8.98;;;4.55;;
36315;SDS011;22343;50.820;2.666;2023-07-30T12:33:54;9.50;;;3.90;;
36315;SDS011;22343;50.820;2.666;2023-07-30T12:36:39;9.27;;;3.88;;
36315;SDS011;22343;50.820;2.666;2023-07-30T12:39:23;11.48;;;4.32;;
36315;SDS011;22343;50.820;2.666;2023-07-30T12:42:07;8.85;;;3.83;;
36315;SDS011;22343;50.820;2.666;2023-07-30T12:44:51;10.93;;;4.03;;
36315;SDS011;22343;50.820;2.666;2023-07-30T12:47:36;9.60;;;3.92;;
36315;SDS011;22343;50.820;2.666;2023-07-30T12:50:21;10.38;;;3.70;;
36315;SDS011;22343;50.820;2.666;2023-07-30T12:53:05;10.55;;;4.10;;
36315;SDS011;22343;50.820;2.666;2023-07-30T12:55:49;9.30;;;3.70;;
36315;SDS011;22343;50.820;2.666;2023-07-30T12:58:35;9.40;;;3.90;;
36315;SDS011;22343;50.820;2.666;2023-07-30T13:01:20;11.73;;;4.50;;
36315;SDS011;22343;50.820;2.666;2023-07-30T13:04:06;9.93;;;3.90;;
36315;SDS011;22343;50.820;2.666;2023-07-30T13:06:51;11.25;;;3.95;;
36315;SDS011;22343;50.820;2.666;2023-07-30T13:09:35;8.13;;;4.05;;
36315;SDS011;22343;50.820;2.666;2023-07-30T13:12:20;10.95;;;4.50;;
36315;SDS011;22343;50.820;2.666;2023-07-30T13:15:04;8.48;;;3.97;;
36315;SDS011;22343;50.820;2.666;2023-07-30T13:17:49;8.50;;;4.43;;
36315;SDS011;22343;50.820;2.666;2023-07-30T13:20:35;8.85;;;4.07;;
36315;SDS011;22343;50.820;2.666;2023-07-30T13:23:19;12.10;;;3.90;;
36315;SDS011;22343;50.820;2.666;2023-07-30T13:26:04;7.57;;;3.85;;
36315;SDS011;22343;50.820;2.666;2023-07-30T13:28:48;10.73;;;4.20;;
36315;SDS011;22343;50.820;2.666;2023-07-30T13:31:33;8.57;;;4.30;;
36315;SDS011;22343;50.820;2.666;2023-07-30T13:34:18;11.40;;;4.32;;
36315;SDS011;22343;50.820;2.666;2023-07-30T13:37:02;8.73;;;4.28;;
36315;SDS011;22343;50.820;2.666;2023-07-30T13:39:47;10.27;;;4.40;;
36315;SDS011;22343;50.820;2.666;2023-07-30T13:42:32;8.35;;;3.90;;
36315;SDS011;22343;50.820;2.666;2023-07-30T13:45:16;6.65;;;3.78;;
36315;SDS011;22343;50.820;2.666;2023-07-30T13:48:00;8.23;;;3.75;;
36315;SDS011;22343;50.820;2.666;2023-07-30T13:50:45;8.90;;;3.72;;
36315;SDS011;22343;50.820;2.666;2023-07-30T13:53:29;7.25;;;3.95;;
36315;SDS011;22343;50.820;2.666;2023-07-30T13:56:13;4.47;;;3.30;;
36315;SDS011;22343;50.820;2.666;2023-07-30T13:58:58;6.95;;;3.75;;
36315;SDS011;22343;50.820;2.666;2023-07-30T14:01:42;5.68;;;3.42;;
36315;SDS011;22343;50.820;2.666;2023-07-30T14:04:27;7.28;;;3.08;;
36315;SDS011;22343;50.820;2.666;2023-07-30T14:07:11;6.45;;;3.53;;
36315;SDS011;22343;50.820;2.666;2023-07-30T14:09:55;7.00;;;3.67;;
36315;SDS011;22343;50.820;2.666;2023-07-30T14:12:40;5.85;;;3.15;;
36315;SDS011;22343;50.820;2.666;2023-07-30T14:15:24;4.55;;;2.75;;
36315;SDS011;22343;50.820;2.666;2023-07-30T14:18:09;6.03;;;2.78;;
36315;SDS011;22343;50.820;2.666;2023-07-30T14:20:54;6.00;;;2.95;;
36315;SDS011;22343;50.820;2.666;2023-07-30T14:23:38;4.47;;;2.47;;
36315;SDS011;22343;50.820;2.666;2023-07-30T14:26:23;5.07;;;2.60;;
36315;SDS011;22343;50.820;2.666;2023-07-30T14:29:07;4.28;;;2.33;;
36315;SDS011;22343;50.820;2.666;2023-07-30T14:31:51;4.57;;;2.75;;
36315;SDS011;22343;50.820;2.666;2023-07-30T14:34:36;4.38;;;2.80;;
36315;SDS011;22343;50.820;2.666;2023-07-30T14:37:20;6.50;;;2.80;;
36315;SDS011;22343;50.820;2.666;2023-07-30T14:40:05;6.55;;;2.50;;
36315;SDS011;22343;50.820;2.666;2023-07-30T14:42:50;5.90;;;2.75;;
36315;SDS011;22343;50.820;2.666;2023-07-30T14:45:34;4.15;;;2.80;;
36315;SDS011;22343;50.820;2.666;2023-07-30T14:48:18;5.32;;;3.10;;
36315;SDS011;22343;50.820;2.666;2023-07-30T14:51:02;4.82;;;2.65;;
36315;SDS011;22343;50.820;2.666;2023-07-30T14:53:47;5.57;;;2.80;;
36315;SDS011;22343;50.820;2.666;2023-07-30T14:56:31;3.55;;;2.58;;
36315;SDS011;22343;50.820;2.666;2023-07-30T14:59:15;4.18;;;2.72;;
36315;SDS011;22343;50.820;2.666;2023-07-30T15:02:00;5.80;;;3.00;;
36315;SDS011;22343;50.820;2.666;2023-07-30T15:04:45;5.05;;;3.00;;
36315;SDS011;22343;50.820;2.666;2023-07-30T15:07:30;6.05;;;3.60;;
36315;SDS011;22343;50.820;2.666;2023-07-30T15:10:14;5.90;;;3.20;;
36315;SDS011;22343;50.820;2.666;2023-07-30T15:13:01;5.40;;;3.00;;
36315;SDS011;22343;50.820;2.666;2023-07-30T15:15:46;6.75;;;3.17;;
36315;SDS011;22343;50.820;2.666;2023-07-30T15:18:31;5.47;;;3.17;;
36315;SDS011;22343;50.820;2.666;2023-07-30T15:21:17;7.40;;;3.45;;
36315;SDS011;22343;50.820;2.666;2023-07-30T15:24:01;5.05;;;3.20;;
36315;SDS011;22343;50.820;2.666;2023-07-30T15:26:46;6.97;;;3.70;;
36315;SDS011;22343;50.820;2.666;2023-07-30T15:29:30;7.65;;;3.75;;
36315;SDS011;22343;50.820;2.666;2023-07-30T15:32:14;5.72;;;3.72;;
36315;SDS011;22343;50.820;2.666;2023-07-30T15:34:59;7.10;;;4.22;;
36315;SDS011;22343;50.820;2.666;2023-07-30T15:37:43;7.13;;;3.63;;
36315;SDS011;22343;50.820;2.666;2023-07-30T15:40:29;7.28;;;3.95;;
36315;SDS011;22343;50.820;2.666;2023-07-30T15:43:13;9.48;;;4.28;;
36315;SDS011;22343;50.820;2.666;2023-07-30T15:45:58;6.80;;;4.32;;
36315;SDS011;22343;50.820;2.666;2023-07-30T15:48:46;7.63;;;4.75;;
36315;SDS011;22343;50.820;2.666;2023-07-30T15:51:31;9.60;;;4.63;;
36315;SDS011;22343;50.820;2.666;2023-07-30T15:54:15;8.80;;;4.60;;
36315;SDS011;22343;50.820;2.666;2023-07-30T15:57:00;9.93;;;4.90;;
36315;SDS011;22343;50.820;2.666;2023-07-30T15:59:45;7.72;;;4.50;;
36315;SDS011;22343;50.820;2.666;2023-07-30T16:02:32;9.65;;;4.90;;
36315;SDS011;22343;50.820;2.666;2023-07-30T16:05:17;10.70;;;4.70;;
36315;SDS011;22343;50.820;2.666;2023-07-30T16:08:01;9.77;;;5.15;;
36315;SDS011;22343;50.820;2.666;2023-07-30T16:10:45;9.18;;;5.50;;
36315;SDS011;22343;50.820;2.666;2023-07-30T16:13:30;10.68;;;5.32;;
36315;SDS011;22343;50.820;2.666;2023-07-30T16:16:15;11.98;;;5.40;;
36315;SDS011;22343;50.820;2.666;2023-07-30T16:19:01;16.10;;;6.18;;
36315;SDS011;22343;50.820;2.666;2023-07-30T16:21:46;10.18;;;5.47;;
36315;SDS011;22343;50.820;2.666;2023-07-30T16:24:32;11.60;;;5.57;;
36315;SDS011;22343;50.820;2.666;2023-07-30T16:27:16;12.80;;;5.70;;
36315;SDS011;22343;50.820;2.666;2023-07-30T16:30:02;11.43;;;5.63;;
36315;SDS011;22343;50.820;2.666;2023-07-30T16:32:47;11.75;;;5.70;;
36315;SDS011;22343;50.820;2.666;2023-07-30T16:35:32;12.40;;;6.15;;